sensor_id;sensor_type;location;lat;lon;timestamp;P1;durP1;ratioP1;P2;durP2;ratioP2
8823;SDS011;4448;50.904;4.694;2022-11-15T00:01:50;6.80;;;4.30;;
8823;SDS011;4448;50.904;4.694;2022-11-15T00:04:15;4.87;;;3.40;;
8823;SDS011;4448;50.904;4.694;2022-11-15T00:06:41;10.53;;;6.63;;
8823;SDS011;4448;50.904;4.694;2022-11-15T00:09:07;9.50;;;5.30;;
8823;SDS011;4448;50.904;4.694;2022-11-15T00:11:32;10.23;;;5.20;;
8823;SDS011;4448;50.904;4.694;2022-11-15T00:13:58;2.40;;;2.20;;
8823;SDS011;4448;50.904;4.694;2022-11-15T00:16:26;2.73;;;1.80;;
8823;SDS011;4448;50.904;4.694;2022-11-15T00:18:52;9.63;;;5.97;;
8823;SDS011;4448;50.904;4.694;2022-11-15T00:21:18;1.80;;;1.70;;
8823;SDS011;4448;50.904;4.694;2022-11-15T00:23:44;9.13;;;3.27;;
8823;SDS011;4448;50.904;4.694;2022-11-15T00:26:13;3.80;;;2.60;;
8823;SDS011;4448;50.904;4.694;2022-11-15T00:28:40;12.70;;;7.23;;
8823;SDS011;4448;50.904;4.694;2022-11-15T00:31:07;11.50;;;6.50;;
8823;SDS011;4448;50.904;4.694;2022-11-15T00:33:36;4.43;;;3.63;;
8823;SDS011;4448;50.904;4.694;2022-11-15T00:36:02;0.87;;;0.87;;
8823;SDS011;4448;50.904;4.694;2022-11-15T00:38:31;8.27;;;2.27;;
8823;SDS011;4448;50.904;4.694;2022-11-15T00:40:58;10.20;;;4.60;;
8823;SDS011;4448;50.904;4.694;2022-11-15T00:43:23;5.80;;;5.00;;
8823;SDS011;4448;50.904;4.694;2022-11-15T00:45:49;1.33;;;1.23;;
8823;SDS011;4448;50.904;4.694;2022-11-15T00:48:15;0.97;;;0.83;;
8823;SDS011;4448;50.904;4.694;2022-11-15T00:50:40;2.63;;;2.37;;
8823;SDS011;4448;50.904;4.694;2022-11-15T00:53:06;0.50;;;0.50;;
8823;SDS011;4448;50.904;4.694;2022-11-15T00:55:32;4.33;;;3.33;;
8823;SDS011;4448;50.904;4.694;2022-11-15T00:57:57;0.83;;;0.60;;
8823;SDS011;4448;50.904;4.694;2022-11-15T01:00:23;3.03;;;2.33;;
8823;SDS011;4448;50.904;4.694;2022-11-15T01:02:49;8.50;;;5.47;;
8823;SDS011;4448;50.904;4.694;2022-11-15T01:05:14;1.67;;;1.63;;
8823;SDS011;4448;50.904;4.694;2022-11-15T01:07:40;3.70;;;3.13;;
8823;SDS011;4448;50.904;4.694;2022-11-15T01:10:06;2.63;;;2.23;;
8823;SDS011;4448;50.904;4.694;2022-11-15T01:12:32;4.87;;;2.40;;
8823;SDS011;4448;50.904;4.694;2022-11-15T01:14:58;3.10;;;2.80;;
8823;SDS011;4448;50.904;4.694;2022-11-15T01:17:24;6.47;;;3.83;;
8823;SDS011;4448;50.904;4.694;2022-11-15T01:19:49;2.20;;;1.77;;
8823;SDS011;4448;50.904;4.694;2022-11-15T01:22:15;3.33;;;1.83;;
8823;SDS011;4448;50.904;4.694;2022-11-15T01:24:41;5.00;;;3.30;;
8823;SDS011;4448;50.904;4.694;2022-11-15T01:27:07;3.20;;;2.13;;
8823;SDS011;4448;50.904;4.694;2022-11-15T01:29:33;2.80;;;2.17;;
8823;SDS011;4448;50.904;4.694;2022-11-15T01:31:58;4.23;;;3.57;;
8823;SDS011;4448;50.904;4.694;2022-11-15T01:34:24;5.67;;;2.97;;
8823;SDS011;4448;50.904;4.694;2022-11-15T01:36:50;5.20;;;3.47;;
8823;SDS011;4448;50.904;4.694;2022-11-15T01:39:15;9.47;;;5.83;;
8823;SDS011;4448;50.904;4.694;2022-11-15T01:41:41;7.83;;;5.40;;
8823;SDS011;4448;50.904;4.694;2022-11-15T01:47:24;6.77;;;4.50;;
8823;SDS011;4448;50.904;4.694;2022-11-15T01:50:15;16.80;;;5.47;;
8823;SDS011;4448;50.904;4.694;2022-11-15T01:52:45;3.10;;;2.13;;
8823;SDS011;4448;50.904;4.694;2022-11-15T01:55:15;1.37;;;1.27;;
8823;SDS011;4448;50.904;4.694;2022-11-15T01:57:46;5.80;;;2.77;;
8823;SDS011;4448;50.904;4.694;2022-11-15T02:00:15;5.90;;;4.13;;
8823;SDS011;4448;50.904;4.694;2022-11-15T02:02:41;4.27;;;3.50;;
8823;SDS011;4448;50.904;4.694;2022-11-15T02:05:08;7.27;;;5.07;;
8823;SDS011;4448;50.904;4.694;2022-11-15T02:07:34;17.37;;;8.30;;
8823;SDS011;4448;50.904;4.694;2022-11-15T02:10:06;10.60;;;5.73;;
8823;SDS011;4448;50.904;4.694;2022-11-15T02:12:37;20.27;;;9.93;;
8823;SDS011;4448;50.904;4.694;2022-11-15T02:15:04;16.80;;;7.10;;
8823;SDS011;4448;50.904;4.694;2022-11-15T02:17:40;23.70;;;9.73;;
8823;SDS011;4448;50.904;4.694;2022-11-15T02:23:33;5.50;;;4.10;;
8823;SDS011;4448;50.904;4.694;2022-11-15T02:31:48;12.73;;;8.70;;
8823;SDS011;4448;50.904;4.694;2022-11-15T02:37:15;5.20;;;4.37;;
8823;SDS011;4448;50.904;4.694;2022-11-15T02:39:51;5.93;;;3.97;;
8823;SDS011;4448;50.904;4.694;2022-11-15T02:42:27;11.47;;;7.27;;
8823;SDS011;4448;50.904;4.694;2022-11-15T02:45:20;9.90;;;6.30;;
8823;SDS011;4448;50.904;4.694;2022-11-15T02:47:48;10.40;;;6.30;;
8823;SDS011;4448;50.904;4.694;2022-11-15T02:50:17;4.30;;;3.63;;
8823;SDS011;4448;50.904;4.694;2022-11-15T02:52:46;11.37;;;6.53;;
8823;SDS011;4448;50.904;4.694;2022-11-15T02:55:30;7.57;;;4.80;;
8823;SDS011;4448;50.904;4.694;2022-11-15T02:58:48;10.50;;;5.83;;
8823;SDS011;4448;50.904;4.694;2022-11-15T03:03:45;7.93;;;4.60;;
8823;SDS011;4448;50.904;4.694;2022-11-15T03:11:18;12.13;;;7.70;;
8823;SDS011;4448;50.904;4.694;2022-11-15T03:14:00;10.00;;;6.60;;
8823;SDS011;4448;50.904;4.694;2022-11-15T03:21:52;11.00;;;4.37;;
8823;SDS011;4448;50.904;4.694;2022-11-15T03:24:20;8.23;;;6.13;;
8823;SDS011;4448;50.904;4.694;2022-11-15T03:26:48;8.70;;;6.13;;
8823;SDS011;4448;50.904;4.694;2022-11-15T03:29:17;3.13;;;2.10;;
8823;SDS011;4448;50.904;4.694;2022-11-15T03:31:51;2.53;;;2.27;;
8823;SDS011;4448;50.904;4.694;2022-11-15T03:34:58;7.83;;;4.13;;
8823;SDS011;4448;50.904;4.694;2022-11-15T03:40:06;3.03;;;2.67;;
8823;SDS011;4448;50.904;4.694;2022-11-15T03:42:43;11.00;;;5.23;;
8823;SDS011;4448;50.904;4.694;2022-11-15T03:45:14;9.87;;;6.13;;
8823;SDS011;4448;50.904;4.694;2022-11-15T03:47:53;6.73;;;5.17;;
8823;SDS011;4448;50.904;4.694;2022-11-15T03:50:36;8.43;;;5.17;;
8823;SDS011;4448;50.904;4.694;2022-11-15T03:53:02;8.43;;;4.43;;
8823;SDS011;4448;50.904;4.694;2022-11-15T03:55:28;1.67;;;1.57;;
8823;SDS011;4448;50.904;4.694;2022-11-15T03:57:54;8.50;;;5.93;;
8823;SDS011;4448;50.904;4.694;2022-11-15T04:00:23;2.00;;;1.90;;
8823;SDS011;4448;50.904;4.694;2022-11-15T04:02:49;8.10;;;3.03;;
8823;SDS011;4448;50.904;4.694;2022-11-15T04:05:14;4.03;;;2.53;;
8823;SDS011;4448;50.904;4.694;2022-11-15T04:07:40;6.70;;;4.17;;
8823;SDS011;4448;50.904;4.694;2022-11-15T04:10:06;6.90;;;3.53;;
8823;SDS011;4448;50.904;4.694;2022-11-15T04:12:37;2.27;;;1.43;;
8823;SDS011;4448;50.904;4.694;2022-11-15T04:15:07;7.03;;;3.33;;
8823;SDS011;4448;50.904;4.694;2022-11-15T04:17:35;1.57;;;1.50;;
8823;SDS011;4448;50.904;4.694;2022-11-15T04:20:06;9.87;;;6.13;;
8823;SDS011;4448;50.904;4.694;2022-11-15T04:22:54;2.97;;;2.17;;
8823;SDS011;4448;50.904;4.694;2022-11-15T04:25:39;6.47;;;4.57;;
8823;SDS011;4448;50.904;4.694;2022-11-15T04:28:05;7.00;;;4.57;;
8823;SDS011;4448;50.904;4.694;2022-11-15T04:30:31;2.97;;;2.30;;
8823;SDS011;4448;50.904;4.694;2022-11-15T04:32:56;1.60;;;1.50;;
8823;SDS011;4448;50.904;4.694;2022-11-15T04:35:22;3.57;;;3.07;;
8823;SDS011;4448;50.904;4.694;2022-11-15T04:37:48;3.27;;;2.97;;
8823;SDS011;4448;50.904;4.694;2022-11-15T04:40:14;4.63;;;3.70;;
8823;SDS011;4448;50.904;4.694;2022-11-15T04:42:42;7.63;;;4.13;;
8823;SDS011;4448;50.904;4.694;2022-11-15T04:45:09;2.83;;;2.50;;
8823;SDS011;4448;50.904;4.694;2022-11-15T04:47:35;5.40;;;3.87;;
8823;SDS011;4448;50.904;4.694;2022-11-15T04:50:00;16.47;;;3.93;;
8823;SDS011;4448;50.904;4.694;2022-11-15T04:52:26;6.20;;;2.60;;
8823;SDS011;4448;50.904;4.694;2022-11-15T04:54:52;2.83;;;2.10;;
8823;SDS011;4448;50.904;4.694;2022-11-15T04:57:18;7.80;;;3.43;;
8823;SDS011;4448;50.904;4.694;2022-11-15T04:59:43;3.47;;;2.87;;
8823;SDS011;4448;50.904;4.694;2022-11-15T05:02:09;4.83;;;3.33;;
8823;SDS011;4448;50.904;4.694;2022-11-15T05:04:35;2.27;;;1.87;;
8823;SDS011;4448;50.904;4.694;2022-11-15T05:07:00;5.73;;;4.23;;
8823;SDS011;4448;50.904;4.694;2022-11-15T05:09:27;6.93;;;3.60;;
8823;SDS011;4448;50.904;4.694;2022-11-15T05:11:52;5.10;;;1.53;;
8823;SDS011;4448;50.904;4.694;2022-11-15T05:14:18;2.77;;;2.50;;
8823;SDS011;4448;50.904;4.694;2022-11-15T05:16:43;5.43;;;3.37;;
8823;SDS011;4448;50.904;4.694;2022-11-15T05:19:09;7.03;;;5.00;;
8823;SDS011;4448;50.904;4.694;2022-11-15T05:21:35;8.90;;;3.73;;
8823;SDS011;4448;50.904;4.694;2022-11-15T05:24:01;6.97;;;3.93;;
8823;SDS011;4448;50.904;4.694;2022-11-15T05:26:27;5.70;;;3.40;;
8823;SDS011;4448;50.904;4.694;2022-11-15T05:28:53;5.97;;;3.83;;
8823;SDS011;4448;50.904;4.694;2022-11-15T05:31:20;4.83;;;3.57;;
8823;SDS011;4448;50.904;4.694;2022-11-15T05:33:46;5.77;;;4.37;;
8823;SDS011;4448;50.904;4.694;2022-11-15T05:36:15;2.57;;;2.23;;
8823;SDS011;4448;50.904;4.694;2022-11-15T05:38:42;9.23;;;4.83;;
8823;SDS011;4448;50.904;4.694;2022-11-15T05:41:08;2.53;;;2.10;;
8823;SDS011;4448;50.904;4.694;2022-11-15T05:43:35;6.03;;;3.60;;
8823;SDS011;4448;50.904;4.694;2022-11-15T05:46:03;3.83;;;2.67;;
8823;SDS011;4448;50.904;4.694;2022-11-15T05:48:29;0.73;;;0.73;;
8823;SDS011;4448;50.904;4.694;2022-11-15T05:50:56;5.97;;;3.20;;
8823;SDS011;4448;50.904;4.694;2022-11-15T05:53:22;2.83;;;2.23;;
8823;SDS011;4448;50.904;4.694;2022-11-15T05:55:49;6.37;;;4.00;;
8823;SDS011;4448;50.904;4.694;2022-11-15T05:58:15;3.50;;;1.57;;
8823;SDS011;4448;50.904;4.694;2022-11-15T06:00:41;3.20;;;1.50;;
8823;SDS011;4448;50.904;4.694;2022-11-15T06:03:08;2.67;;;2.43;;
8823;SDS011;4448;50.904;4.694;2022-11-15T06:05:34;2.93;;;1.27;;
8823;SDS011;4448;50.904;4.694;2022-11-15T06:08:01;2.47;;;2.27;;
8823;SDS011;4448;50.904;4.694;2022-11-15T06:10:26;5.03;;;3.40;;
8823;SDS011;4448;50.904;4.694;2022-11-15T06:12:59;1.33;;;1.23;;
8823;SDS011;4448;50.904;4.694;2022-11-15T06:15:25;2.30;;;2.03;;
8823;SDS011;4448;50.904;4.694;2022-11-15T06:17:51;3.83;;;2.73;;
8823;SDS011;4448;50.904;4.694;2022-11-15T06:20:17;2.03;;;1.53;;
8823;SDS011;4448;50.904;4.694;2022-11-15T06:22:43;4.67;;;2.93;;
8823;SDS011;4448;50.904;4.694;2022-11-15T06:25:09;4.50;;;3.27;;
8823;SDS011;4448;50.904;4.694;2022-11-15T06:27:34;3.43;;;2.60;;
8823;SDS011;4448;50.904;4.694;2022-11-15T06:30:00;3.73;;;3.17;;
8823;SDS011;4448;50.904;4.694;2022-11-15T06:32:26;7.40;;;4.63;;
8823;SDS011;4448;50.904;4.694;2022-11-15T06:34:53;4.87;;;2.70;;
8823;SDS011;4448;50.904;4.694;2022-11-15T06:37:19;1.43;;;1.33;;
8823;SDS011;4448;50.904;4.694;2022-11-15T06:39:44;6.20;;;3.73;;
8823;SDS011;4448;50.904;4.694;2022-11-15T06:42:10;9.23;;;3.83;;
8823;SDS011;4448;50.904;4.694;2022-11-15T06:44:36;17.47;;;3.83;;
8823;SDS011;4448;50.904;4.694;2022-11-15T06:47:01;10.37;;;4.30;;
8823;SDS011;4448;50.904;4.694;2022-11-15T06:49:27;4.97;;;3.77;;
8823;SDS011;4448;50.904;4.694;2022-11-15T06:51:52;6.70;;;3.87;;
8823;SDS011;4448;50.904;4.694;2022-11-15T06:54:18;4.90;;;3.60;;
8823;SDS011;4448;50.904;4.694;2022-11-15T06:56:45;2.67;;;2.33;;
8823;SDS011;4448;50.904;4.694;2022-11-15T07:01:37;4.80;;;3.37;;
8823;SDS011;4448;50.904;4.694;2022-11-15T07:04:02;1.67;;;1.53;;
8823;SDS011;4448;50.904;4.694;2022-11-15T07:06:28;3.00;;;2.77;;
8823;SDS011;4448;50.904;4.694;2022-11-15T07:08:54;0.33;;;0.33;;
8823;SDS011;4448;50.904;4.694;2022-11-15T07:11:19;6.43;;;1.90;;
8823;SDS011;4448;50.904;4.694;2022-11-15T07:13:45;16.03;;;3.57;;
8823;SDS011;4448;50.904;4.694;2022-11-15T07:16:11;2.20;;;2.00;;
8823;SDS011;4448;50.904;4.694;2022-11-15T07:18:37;2.47;;;2.27;;
8823;SDS011;4448;50.904;4.694;2022-11-15T07:21:04;2.10;;;1.87;;
8823;SDS011;4448;50.904;4.694;2022-11-15T07:23:31;8.97;;;4.40;;
8823;SDS011;4448;50.904;4.694;2022-11-15T07:26:01;5.80;;;3.53;;
8823;SDS011;4448;50.904;4.694;2022-11-15T07:28:29;5.80;;;3.03;;
8823;SDS011;4448;50.904;4.694;2022-11-15T07:30:54;3.23;;;2.93;;
8823;SDS011;4448;50.904;4.694;2022-11-15T07:33:20;3.87;;;3.13;;
8823;SDS011;4448;50.904;4.694;2022-11-15T07:35:46;5.97;;;4.30;;
8823;SDS011;4448;50.904;4.694;2022-11-15T07:38:15;5.83;;;3.33;;
8823;SDS011;4448;50.904;4.694;2022-11-15T07:40:44;7.50;;;4.00;;
8823;SDS011;4448;50.904;4.694;2022-11-15T07:43:11;8.30;;;3.73;;
8823;SDS011;4448;50.904;4.694;2022-11-15T07:45:41;8.17;;;3.70;;
8823;SDS011;4448;50.904;4.694;2022-11-15T07:48:08;1.43;;;1.33;;
8823;SDS011;4448;50.904;4.694;2022-11-15T07:50:34;3.93;;;2.47;;
8823;SDS011;4448;50.904;4.694;2022-11-15T07:52:59;2.53;;;2.33;;
8823;SDS011;4448;50.904;4.694;2022-11-15T07:55:26;2.60;;;2.40;;
8823;SDS011;4448;50.904;4.694;2022-11-15T07:58:04;5.17;;;3.13;;
8823;SDS011;4448;50.904;4.694;2022-11-15T08:00:32;4.13;;;2.80;;
8823;SDS011;4448;50.904;4.694;2022-11-15T08:03:01;6.30;;;3.10;;
8823;SDS011;4448;50.904;4.694;2022-11-15T08:05:28;3.60;;;1.90;;
8823;SDS011;4448;50.904;4.694;2022-11-15T08:07:57;12.00;;;1.60;;
8823;SDS011;4448;50.904;4.694;2022-11-15T08:10:23;4.17;;;3.10;;
8823;SDS011;4448;50.904;4.694;2022-11-15T08:12:56;3.90;;;2.23;;
8823;SDS011;4448;50.904;4.694;2022-11-15T08:15:25;2.27;;;1.53;;
8823;SDS011;4448;50.904;4.694;2022-11-15T08:17:55;3.40;;;2.27;;
8823;SDS011;4448;50.904;4.694;2022-11-15T08:20:22;3.63;;;1.97;;
8823;SDS011;4448;50.904;4.694;2022-11-15T08:22:48;6.33;;;2.17;;
8823;SDS011;4448;50.904;4.694;2022-11-15T08:25:14;1.67;;;1.57;;
8823;SDS011;4448;50.904;4.694;2022-11-15T08:27:39;3.73;;;2.57;;
8823;SDS011;4448;50.904;4.694;2022-11-15T08:30:05;3.33;;;1.57;;
8823;SDS011;4448;50.904;4.694;2022-11-15T08:32:31;3.37;;;1.90;;
8823;SDS011;4448;50.904;4.694;2022-11-15T08:34:57;4.17;;;1.70;;
8823;SDS011;4448;50.904;4.694;2022-11-15T08:37:23;1.70;;;1.60;;
8823;SDS011;4448;50.904;4.694;2022-11-15T08:39:48;2.77;;;1.90;;
8823;SDS011;4448;50.904;4.694;2022-11-15T08:42:14;3.03;;;2.00;;
8823;SDS011;4448;50.904;4.694;2022-11-15T08:44:41;1.00;;;0.87;;
8823;SDS011;4448;50.904;4.694;2022-11-15T08:47:07;2.13;;;1.30;;
8823;SDS011;4448;50.904;4.694;2022-11-15T08:49:33;3.07;;;1.60;;
8823;SDS011;4448;50.904;4.694;2022-11-15T08:52:01;1.47;;;0.90;;
8823;SDS011;4448;50.904;4.694;2022-11-15T08:54:27;3.80;;;1.63;;
8823;SDS011;4448;50.904;4.694;2022-11-15T08:56:53;6.37;;;2.10;;
8823;SDS011;4448;50.904;4.694;2022-11-15T08:59:18;1.33;;;1.23;;
8823;SDS011;4448;50.904;4.694;2022-11-15T09:01:44;2.20;;;1.30;;
8823;SDS011;4448;50.904;4.694;2022-11-15T09:04:10;3.17;;;1.53;;
8823;SDS011;4448;50.904;4.694;2022-11-15T09:06:36;1.60;;;1.17;;
8823;SDS011;4448;50.904;4.694;2022-11-15T09:09:02;3.33;;;1.33;;
8823;SDS011;4448;50.904;4.694;2022-11-15T09:11:29;1.80;;;1.07;;
8823;SDS011;4448;50.904;4.694;2022-11-15T09:13:54;3.50;;;1.23;;
8823;SDS011;4448;50.904;4.694;2022-11-15T09:16:20;1.70;;;1.60;;
8823;SDS011;4448;50.904;4.694;2022-11-15T09:18:46;1.70;;;0.93;;
8823;SDS011;4448;50.904;4.694;2022-11-15T09:21:12;1.17;;;0.90;;
8823;SDS011;4448;50.904;4.694;2022-11-15T09:23:38;3.60;;;1.30;;
8823;SDS011;4448;50.904;4.694;2022-11-15T09:26:04;5.73;;;2.30;;
8823;SDS011;4448;50.904;4.694;2022-11-15T09:28:30;1.17;;;0.90;;
8823;SDS011;4448;50.904;4.694;2022-11-15T09:30:58;3.00;;;1.00;;
8823;SDS011;4448;50.904;4.694;2022-11-15T09:33:25;2.40;;;1.40;;
8823;SDS011;4448;50.904;4.694;2022-11-15T09:35:51;3.93;;;1.30;;
8823;SDS011;4448;50.904;4.694;2022-11-15T09:38:17;1.50;;;1.17;;
8823;SDS011;4448;50.904;4.694;2022-11-15T09:40:43;2.43;;;1.33;;
8823;SDS011;4448;50.904;4.694;2022-11-15T09:51:17;8.33;;;1.43;;
8823;SDS011;4448;50.904;4.694;2022-11-15T09:53:52;7.50;;;1.47;;
8823;SDS011;4448;50.904;4.694;2022-11-15T09:56:36;4.60;;;1.40;;
8823;SDS011;4448;50.904;4.694;2022-11-15T09:59:15;4.67;;;1.77;;
8823;SDS011;4448;50.904;4.694;2022-11-15T10:01:59;0.97;;;0.90;;
8823;SDS011;4448;50.904;4.694;2022-11-15T10:04:43;3.10;;;0.90;;
8823;SDS011;4448;50.904;4.694;2022-11-15T10:07:58;2.83;;;1.30;;
8823;SDS011;4448;50.904;4.694;2022-11-15T10:10:59;6.30;;;1.50;;
8823;SDS011;4448;50.904;4.694;2022-11-15T10:13:20;3.00;;;1.23;;
8823;SDS011;4448;50.904;4.694;2022-11-15T10:15:48;2.13;;;0.73;;
8823;SDS011;4448;50.904;4.694;2022-11-15T10:18:24;7.00;;;0.80;;
8823;SDS011;4448;50.904;4.694;2022-11-15T10:21:02;1.20;;;0.90;;
8823;SDS011;4448;50.904;4.694;2022-11-15T10:23:58;1.23;;;0.80;;
8823;SDS011;4448;50.904;4.694;2022-11-15T10:26:24;2.90;;;1.47;;
8823;SDS011;4448;50.904;4.694;2022-11-15T10:28:49;3.50;;;1.40;;
8823;SDS011;4448;50.904;4.694;2022-11-15T10:31:25;1.53;;;1.17;;
8823;SDS011;4448;50.904;4.694;2022-11-15T10:36:56;5.17;;;1.50;;
8823;SDS011;4448;50.904;4.694;2022-11-15T10:39:22;1.33;;;0.93;;
8823;SDS011;4448;50.904;4.694;2022-11-15T10:41:48;2.30;;;1.17;;
8823;SDS011;4448;50.904;4.694;2022-11-15T10:46:46;1.43;;;1.30;;
8823;SDS011;4448;50.904;4.694;2022-11-15T10:49:30;0.60;;;0.60;;
8823;SDS011;4448;50.904;4.694;2022-11-15T10:54:38;2.00;;;1.10;;
8823;SDS011;4448;50.904;4.694;2022-11-15T10:57:08;6.90;;;1.63;;
8823;SDS011;4448;50.904;4.694;2022-11-15T10:59:39;5.00;;;2.13;;
8823;SDS011;4448;50.904;4.694;2022-11-15T11:02:29;3.70;;;1.17;;
8823;SDS011;4448;50.904;4.694;2022-11-15T11:05:30;3.20;;;1.10;;
8823;SDS011;4448;50.904;4.694;2022-11-15T11:08:19;5.47;;;1.63;;
8823;SDS011;4448;50.904;4.694;2022-11-15T11:10:52;4.27;;;1.40;;
8823;SDS011;4448;50.904;4.694;2022-11-15T11:13:23;10.43;;;1.33;;
8823;SDS011;4448;50.904;4.694;2022-11-15T11:15:53;4.17;;;1.67;;
8823;SDS011;4448;50.904;4.694;2022-11-15T11:18:26;3.77;;;1.50;;
8823;SDS011;4448;50.904;4.694;2022-11-15T11:20:56;1.33;;;0.90;;
8823;SDS011;4448;50.904;4.694;2022-11-15T11:37:07;1.90;;;1.30;;
8823;SDS011;4448;50.904;4.694;2022-11-15T11:47:51;2.27;;;1.00;;
8823;SDS011;4448;50.904;4.694;2022-11-15T11:50:39;3.83;;;1.07;;
8823;SDS011;4448;50.904;4.694;2022-11-15T11:55:59;1.80;;;0.90;;
8823;SDS011;4448;50.904;4.694;2022-11-15T11:58:40;1.80;;;1.23;;
8823;SDS011;4448;50.904;4.694;2022-11-15T12:09:20;4.43;;;1.17;;
8823;SDS011;4448;50.904;4.694;2022-11-15T12:17:52;7.97;;;1.40;;
8823;SDS011;4448;50.904;4.694;2022-11-15T12:20:24;1.03;;;0.77;;
8823;SDS011;4448;50.904;4.694;2022-11-15T12:25:36;0.90;;;0.90;;
8823;SDS011;4448;50.904;4.694;2022-11-15T12:28:16;2.57;;;1.20;;
8823;SDS011;4448;50.904;4.694;2022-11-15T12:30:50;4.57;;;1.30;;
8823;SDS011;4448;50.904;4.694;2022-11-15T12:33:30;3.93;;;1.50;;
8823;SDS011;4448;50.904;4.694;2022-11-15T12:36:00;2.83;;;1.03;;
8823;SDS011;4448;50.904;4.694;2022-11-15T12:41:15;5.30;;;1.60;;
8823;SDS011;4448;50.904;4.694;2022-11-15T12:43:42;2.30;;;1.00;;
8823;SDS011;4448;50.904;4.694;2022-11-15T12:46:19;5.07;;;1.10;;
8823;SDS011;4448;50.904;4.694;2022-11-15T12:48:53;3.30;;;0.87;;
8823;SDS011;4448;50.904;4.694;2022-11-15T12:51:21;4.17;;;1.47;;
8823;SDS011;4448;50.904;4.694;2022-11-15T12:53:48;1.13;;;1.00;;
8823;SDS011;4448;50.904;4.694;2022-11-15T12:58:52;2.43;;;1.37;;
8823;SDS011;4448;50.904;4.694;2022-11-15T13:06:36;2.23;;;0.93;;
8823;SDS011;4448;50.904;4.694;2022-11-15T13:09:49;2.57;;;1.40;;
8823;SDS011;4448;50.904;4.694;2022-11-15T13:11:51;2.90;;;1.10;;
8823;SDS011;4448;50.904;4.694;2022-11-15T13:14:34;1.00;;;0.90;;
8823;SDS011;4448;50.904;4.694;2022-11-15T13:17:22;4.13;;;1.17;;
8823;SDS011;4448;50.904;4.694;2022-11-15T13:22:21;1.53;;;0.83;;
8823;SDS011;4448;50.904;4.694;2022-11-15T13:25:14;8.00;;;1.20;;
8823;SDS011;4448;50.904;4.694;2022-11-15T13:27:49;0.80;;;0.77;;
8823;SDS011;4448;50.904;4.694;2022-11-15T13:30:19;3.27;;;1.40;;
8823;SDS011;4448;50.904;4.694;2022-11-15T13:32:50;5.87;;;1.17;;
8823;SDS011;4448;50.904;4.694;2022-11-15T13:35:24;2.60;;;1.30;;
8823;SDS011;4448;50.904;4.694;2022-11-15T13:37:52;1.70;;;0.97;;
8823;SDS011;4448;50.904;4.694;2022-11-15T13:40:23;2.70;;;1.50;;
8823;SDS011;4448;50.904;4.694;2022-11-15T13:42:52;10.43;;;1.60;;
8823;SDS011;4448;50.904;4.694;2022-11-15T13:45:19;0.77;;;0.73;;
8823;SDS011;4448;50.904;4.694;2022-11-15T13:47:54;3.73;;;1.13;;
8823;SDS011;4448;50.904;4.694;2022-11-15T13:50:22;0.93;;;0.73;;
8823;SDS011;4448;50.904;4.694;2022-11-15T13:52:50;0.90;;;0.80;;
8823;SDS011;4448;50.904;4.694;2022-11-15T13:55:18;1.00;;;0.57;;
8823;SDS011;4448;50.904;4.694;2022-11-15T13:57:53;1.93;;;1.30;;
8823;SDS011;4448;50.904;4.694;2022-11-15T14:00:41;1.63;;;0.80;;
8823;SDS011;4448;50.904;4.694;2022-11-15T14:05:46;1.23;;;1.13;;
8823;SDS011;4448;50.904;4.694;2022-11-15T14:08:33;2.67;;;0.90;;
8823;SDS011;4448;50.904;4.694;2022-11-15T14:11:06;4.07;;;1.03;;
8823;SDS011;4448;50.904;4.694;2022-11-15T14:14:03;0.50;;;0.50;;
8823;SDS011;4448;50.904;4.694;2022-11-15T14:16:34;1.23;;;0.80;;
8823;SDS011;4448;50.904;4.694;2022-11-15T14:19:11;1.77;;;1.20;;
8823;SDS011;4448;50.904;4.694;2022-11-15T14:24:32;1.07;;;1.00;;
8823;SDS011;4448;50.904;4.694;2022-11-15T14:27:15;1.13;;;0.63;;
8823;SDS011;4448;50.904;4.694;2022-11-15T14:29:51;1.67;;;1.10;;
8823;SDS011;4448;50.904;4.694;2022-11-15T14:32:19;1.00;;;0.53;;
8823;SDS011;4448;50.904;4.694;2022-11-15T14:34:47;1.03;;;0.97;;
8823;SDS011;4448;50.904;4.694;2022-11-15T14:37:25;1.00;;;0.80;;
8823;SDS011;4448;50.904;4.694;2022-11-15T14:39:56;3.67;;;1.37;;
8823;SDS011;4448;50.904;4.694;2022-11-15T14:42:22;0.90;;;0.87;;
8823;SDS011;4448;50.904;4.694;2022-11-15T14:44:48;7.03;;;1.07;;
8823;SDS011;4448;50.904;4.694;2022-11-15T14:47:15;1.53;;;0.90;;
8823;SDS011;4448;50.904;4.694;2022-11-15T14:49:40;1.30;;;1.20;;
8823;SDS011;4448;50.904;4.694;2022-11-15T14:54:58;1.43;;;1.33;;
8823;SDS011;4448;50.904;4.694;2022-11-15T14:57:26;0.87;;;0.83;;
8823;SDS011;4448;50.904;4.694;2022-11-15T14:59:53;0.47;;;0.47;;
8823;SDS011;4448;50.904;4.694;2022-11-15T15:02:20;1.03;;;0.77;;
8823;SDS011;4448;50.904;4.694;2022-11-15T15:04:48;1.13;;;0.87;;
8823;SDS011;4448;50.904;4.694;2022-11-15T15:07:15;0.83;;;0.83;;
8823;SDS011;4448;50.904;4.694;2022-11-15T15:09:43;0.60;;;0.60;;
8823;SDS011;4448;50.904;4.694;2022-11-15T15:12:18;0.33;;;0.33;;
8823;SDS011;4448;50.904;4.694;2022-11-15T15:14:45;1.60;;;1.40;;
8823;SDS011;4448;50.904;4.694;2022-11-15T15:17:13;0.87;;;0.87;;
8823;SDS011;4448;50.904;4.694;2022-11-15T15:19:40;0.97;;;0.87;;
8823;SDS011;4448;50.904;4.694;2022-11-15T15:22:14;0.93;;;0.93;;
8823;SDS011;4448;50.904;4.694;2022-11-15T15:24:42;2.20;;;0.93;;
8823;SDS011;4448;50.904;4.694;2022-11-15T15:27:09;1.47;;;1.37;;
8823;SDS011;4448;50.904;4.694;2022-11-15T15:29:35;1.27;;;1.17;;
8823;SDS011;4448;50.904;4.694;2022-11-15T15:32:01;0.60;;;0.60;;
8823;SDS011;4448;50.904;4.694;2022-11-15T15:34:27;1.10;;;1.10;;
8823;SDS011;4448;50.904;4.694;2022-11-15T15:37:11;1.43;;;1.13;;
8823;SDS011;4448;50.904;4.694;2022-11-15T15:39:44;0.77;;;0.77;;
8823;SDS011;4448;50.904;4.694;2022-11-15T15:42:09;0.97;;;0.90;;
8823;SDS011;4448;50.904;4.694;2022-11-15T15:44:35;1.67;;;0.83;;
8823;SDS011;4448;50.904;4.694;2022-11-15T15:47:01;3.10;;;1.17;;
8823;SDS011;4448;50.904;4.694;2022-11-15T15:49:26;5.70;;;1.47;;
8823;SDS011;4448;50.904;4.694;2022-11-15T15:51:52;1.50;;;1.20;;
8823;SDS011;4448;50.904;4.694;2022-11-15T15:54:17;1.20;;;0.80;;
8823;SDS011;4448;50.904;4.694;2022-11-15T15:56:43;5.13;;;1.80;;
8823;SDS011;4448;50.904;4.694;2022-11-15T15:59:09;1.00;;;0.73;;
8823;SDS011;4448;50.904;4.694;2022-11-15T16:01:36;1.20;;;1.07;;
8823;SDS011;4448;50.904;4.694;2022-11-15T16:04:03;1.60;;;1.50;;
8823;SDS011;4448;50.904;4.694;2022-11-15T16:06:32;1.83;;;1.43;;
8823;SDS011;4448;50.904;4.694;2022-11-15T16:09:00;3.37;;;1.40;;
8823;SDS011;4448;50.904;4.694;2022-11-15T16:11:27;1.30;;;0.93;;
8823;SDS011;4448;50.904;4.694;2022-11-15T16:13:55;2.60;;;1.03;;
8823;SDS011;4448;50.904;4.694;2022-11-15T16:16:23;5.20;;;1.63;;
8823;SDS011;4448;50.904;4.694;2022-11-15T16:18:51;2.93;;;1.67;;
8823;SDS011;4448;50.904;4.694;2022-11-15T16:21:19;4.53;;;1.40;;
8823;SDS011;4448;50.904;4.694;2022-11-15T16:23:45;1.27;;;1.13;;
8823;SDS011;4448;50.904;4.694;2022-11-15T16:26:44;1.33;;;1.13;;
8823;SDS011;4448;50.904;4.694;2022-11-15T16:29:02;1.17;;;1.07;;
8823;SDS011;4448;50.904;4.694;2022-11-15T16:31:28;2.37;;;1.40;;
8823;SDS011;4448;50.904;4.694;2022-11-15T16:33:55;7.90;;;1.50;;
8823;SDS011;4448;50.904;4.694;2022-11-15T16:36:24;2.10;;;1.43;;
8823;SDS011;4448;50.904;4.694;2022-11-15T16:38:51;2.70;;;1.57;;
8823;SDS011;4448;50.904;4.694;2022-11-15T16:41:17;2.00;;;1.63;;
8823;SDS011;4448;50.904;4.694;2022-11-15T16:43:44;2.40;;;1.63;;
8823;SDS011;4448;50.904;4.694;2022-11-15T16:46:18;2.43;;;1.63;;
8823;SDS011;4448;50.904;4.694;2022-11-15T16:48:45;2.77;;;1.93;;
8823;SDS011;4448;50.904;4.694;2022-11-15T16:51:12;2.00;;;1.43;;
8823;SDS011;4448;50.904;4.694;2022-11-15T16:53:38;0.93;;;0.93;;
8823;SDS011;4448;50.904;4.694;2022-11-15T16:56:04;2.43;;;1.70;;
8823;SDS011;4448;50.904;4.694;2022-11-15T16:58:38;2.37;;;1.87;;
8823;SDS011;4448;50.904;4.694;2022-11-15T17:01:04;1.57;;;1.47;;
8823;SDS011;4448;50.904;4.694;2022-11-15T17:03:30;1.07;;;0.90;;
8823;SDS011;4448;50.904;4.694;2022-11-15T17:05:57;1.90;;;1.60;;
8823;SDS011;4448;50.904;4.694;2022-11-15T17:08:24;2.53;;;1.80;;
8823;SDS011;4448;50.904;4.694;2022-11-15T17:10:49;2.47;;;1.73;;
8823;SDS011;4448;50.904;4.694;2022-11-15T17:13:15;1.90;;;1.37;;
8823;SDS011;4448;50.904;4.694;2022-11-15T17:15:42;3.23;;;1.23;;
8823;SDS011;4448;50.904;4.694;2022-11-15T17:18:10;2.57;;;1.80;;
8823;SDS011;4448;50.904;4.694;2022-11-15T17:20:39;2.30;;;1.80;;
8823;SDS011;4448;50.904;4.694;2022-11-15T17:23:16;2.20;;;1.83;;